sensor_id;sensor_type;location;lat;lon;timestamp;pressure;altitude;pressure_sealevel;temperature;humidity
75146;BME280;63641;46.526;24.612;2023-04-25T00:00:17;96241.63;;;12.24;61.76
75146;BME280;63641;46.526;24.612;2023-04-25T00:02:44;96240.06;;;12.23;62.04
75146;BME280;63641;46.526;24.612;2023-04-25T00:05:11;96236.56;;;12.23;62.20
75146;BME280;63641;46.526;24.612;2023-04-25T00:07:38;96236.56;;;12.23;62.13
75146;BME280;63641;46.526;24.612;2023-04-25T00:10:05;96232.56;;;12.20;62.41
75146;BME280;63641;46.526;24.612;2023-04-25T00:12:33;96230.31;;;12.22;62.47
75146;BME280;63641;46.526;24.612;2023-04-25T00:15:00;96213.41;;;12.08;62.43
75146;BME280;63641;46.526;24.612;2023-04-25T00:17:27;96210.53;;;12.13;62.34
75146;BME280;63641;46.526;24.612;2023-04-25T00:19:54;96218.66;;;12.22;62.77
75146;BME280;63641;46.526;24.612;2023-04-25T00:22:22;96218.34;;;12.23;62.93
75146;BME280;63641;46.526;24.612;2023-04-25T00:24:48;96214.03;;;12.22;62.98
75146;BME280;63641;46.526;24.612;2023-04-25T00:27:16;96212.44;;;12.21;63.06
75146;BME280;63641;46.526;24.612;2023-04-25T00:29:42;96217.88;;;12.21;63.14
75146;BME280;63641;46.526;24.612;2023-04-25T00:32:09;96212.59;;;12.16;63.38
75146;BME280;63641;46.526;24.612;2023-04-25T00:34:36;96212.78;;;12.20;63.53
75146;BME280;63641;46.526;24.612;2023-04-25T00:37:03;96212.28;;;12.18;63.73
75146;BME280;63641;46.526;24.612;2023-04-25T00:39:29;96209.91;;;12.16;63.33
75146;BME280;63641;46.526;24.612;2023-04-25T00:41:57;96203.97;;;12.14;63.60
75146;BME280;63641;46.526;24.612;2023-04-25T00:44:24;96205.09;;;12.13;63.69
75146;BME280;63641;46.526;24.612;2023-04-25T00:46:52;96202.06;;;12.06;63.87
75146;BME280;63641;46.526;24.612;2023-04-25T00:49:20;96198.09;;;12.12;63.69
75146;BME280;63641;46.526;24.612;2023-04-25T00:51:47;96196.47;;;12.11;63.95
75146;BME280;63641;46.526;24.612;2023-04-25T00:54:14;96197.13;;;12.08;63.89
75146;BME280;63641;46.526;24.612;2023-04-25T00:56:42;96188.03;;;12.04;63.97
75146;BME280;63641;46.526;24.612;2023-04-25T00:59:09;96188.34;;;12.02;64.37
75146;BME280;63641;46.526;24.612;2023-04-25T01:01:36;96190.72;;;12.04;64.29
75146;BME280;63641;46.526;24.612;2023-04-25T01:04:04;96192.66;;;12.03;64.43
75146;BME280;63641;46.526;24.612;2023-04-25T01:06:31;96192.19;;;12.01;64.33
75146;BME280;63641;46.526;24.612;2023-04-25T01:08:59;96182.75;;;11.99;64.44
75146;BME280;63641;46.526;24.612;2023-04-25T01:11:26;96180.06;;;11.99;64.51
75146;BME280;63641;46.526;24.612;2023-04-25T01:13:52;96185.47;;;11.99;64.48
75146;BME280;63641;46.526;24.612;2023-04-25T01:16:19;96185.00;;;11.97;64.41
75146;BME280;63641;46.526;24.612;2023-04-25T01:18:47;96177.19;;;11.95;64.51
75146;BME280;63641;46.526;24.612;2023-04-25T01:21:14;96186.59;;;11.98;64.87
75146;BME280;63641;46.526;24.612;2023-04-25T01:23:41;96192.81;;;11.98;64.72
75146;BME280;63641;46.526;24.612;2023-04-25T01:26:10;96188.81;;;11.96;64.93
75146;BME280;63641;46.526;24.612;2023-04-25T01:28:38;96174.81;;;11.94;64.99
75146;BME280;63641;46.526;24.612;2023-04-25T01:31:11;96185.66;;;11.94;64.80
75146;BME280;63641;46.526;24.612;2023-04-25T01:33:38;96178.59;;;11.93;64.68
75146;BME280;63641;46.526;24.612;2023-04-25T01:36:05;96183.22;;;11.92;64.90
75146;BME280;63641;46.526;24.612;2023-04-25T01:38:32;96167.94;;;11.88;65.12
75146;BME280;63641;46.526;24.612;2023-04-25T01:40:59;96172.22;;;11.89;65.31
75146;BME280;63641;46.526;24.612;2023-04-25T01:43:26;96165.66;;;11.81;65.49
75146;BME280;63641;46.526;24.612;2023-04-25T01:45:53;96158.66;;;11.80;65.80
75146;BME280;63641;46.526;24.612;2023-04-25T01:48:20;96171.44;;;11.88;65.75
75146;BME280;63641;46.526;24.612;2023-04-25T01:50:47;96172.41;;;11.83;65.76
75146;BME280;63641;46.526;24.612;2023-04-25T01:53:14;96168.38;;;11.81;66.01
75146;BME280;63641;46.526;24.612;2023-04-25T01:55:41;96163.75;;;11.81;65.93
75146;BME280;63641;46.526;24.612;2023-04-25T01:58:08;96163.75;;;11.81;65.97
75146;BME280;63641;46.526;24.612;2023-04-25T02:00:36;96165.84;;;11.84;65.96
75146;BME280;63641;46.526;24.612;2023-04-25T02:03:07;96163.13;;;11.84;66.16
75146;BME280;63641;46.526;24.612;2023-04-25T02:05:38;96169.06;;;11.87;66.32
75146;BME280;63641;46.526;24.612;2023-04-25T02:08:07;96159.31;;;11.85;66.40
75146;BME280;63641;46.526;24.612;2023-04-25T02:10:35;96159.44;;;11.80;66.46
75146;BME280;63641;46.526;24.612;2023-04-25T02:13:02;96164.72;;;11.85;66.53
75146;BME280;63641;46.526;24.612;2023-04-25T02:15:29;96159.63;;;11.84;66.52
75146;BME280;63641;46.526;24.612;2023-04-25T02:17:56;96161.69;;;11.78;66.65
75146;BME280;63641;46.526;24.612;2023-04-25T02:20:24;96161.34;;;11.80;66.66
75146;BME280;63641;46.526;24.612;2023-04-25T02:22:51;96149.84;;;11.66;66.81
75146;BME280;63641;46.526;24.612;2023-04-25T02:25:18;96158.16;;;11.69;66.83
75146;BME280;63641;46.526;24.612;2023-04-25T02:27:47;96157.81;;;11.71;66.84
75146;BME280;63641;46.526;24.612;2023-04-25T02:30:14;96154.03;;;11.72;66.89
75146;BME280;63641;46.526;24.612;2023-04-25T02:32:41;96156.22;;;11.70;67.04
75146;BME280;63641;46.526;24.612;2023-04-25T02:35:09;96166.91;;;11.66;67.41
75146;BME280;63641;46.526;24.612;2023-04-25T02:37:37;96157.97;;;11.66;67.28
75146;BME280;63641;46.526;24.612;2023-04-25T02:40:05;96153.03;;;11.59;67.56
75146;BME280;63641;46.526;24.612;2023-04-25T02:42:32;96156.38;;;11.56;67.76
75146;BME280;63641;46.526;24.612;2023-04-25T02:44:59;96152.84;;;11.55;67.85
75146;BME280;63641;46.526;24.612;2023-04-25T02:47:25;96147.28;;;11.52;67.89
75146;BME280;63641;46.526;24.612;2023-04-25T02:49:52;96147.78;;;11.54;67.86
75146;BME280;63641;46.526;24.612;2023-04-25T02:52:19;96151.09;;;11.51;67.92
75146;BME280;63641;46.526;24.612;2023-04-25T02:54:47;96153.97;;;11.54;68.09
75146;BME280;63641;46.526;24.612;2023-04-25T02:57:14;96161.16;;;11.50;68.29
75146;BME280;63641;46.526;24.612;2023-04-25T02:59:41;96147.91;;;11.40;68.52
75146;BME280;63641;46.526;24.612;2023-04-25T03:02:07;96155.41;;;11.43;68.60
75146;BME280;63641;46.526;24.612;2023-04-25T03:04:34;96152.34;;;11.45;68.72
75146;BME280;63641;46.526;24.612;2023-04-25T03:07:01;96155.41;;;11.43;68.97
75146;BME280;63641;46.526;24.612;2023-04-25T03:09:28;96145.97;;;11.41;69.15
75146;BME280;63641;46.526;24.612;2023-04-25T03:11:55;96151.56;;;11.35;69.19
75146;BME280;63641;46.526;24.612;2023-04-25T03:14:22;96132.25;;;11.28;69.44
75146;BME280;63641;46.526;24.612;2023-04-25T03:16:48;96143.44;;;11.35;69.43
75146;BME280;63641;46.526;24.612;2023-04-25T03:19:15;96142.31;;;11.36;69.63
75146;BME280;63641;46.526;24.612;2023-04-25T03:21:45;96145.00;;;11.36;69.57
75146;BME280;63641;46.526;24.612;2023-04-25T03:24:11;96143.09;;;11.37;69.78
75146;BME280;63641;46.526;24.612;2023-04-25T03:26:39;96144.56;;;11.34;69.96
75146;BME280;63641;46.526;24.612;2023-04-25T03:29:05;96140.22;;;11.33;70.22
75146;BME280;63641;46.526;24.612;2023-04-25T03:31:32;96144.84;;;11.33;70.33
75146;BME280;63641;46.526;24.612;2023-04-25T03:33:59;96148.69;;;11.32;70.43
75146;BME280;63641;46.526;24.612;2023-04-25T03:36:26;96139.25;;;11.29;70.52
75146;BME280;63641;46.526;24.612;2023-04-25T03:38:53;96142.13;;;11.24;70.82
75146;BME280;63641;46.526;24.612;2023-04-25T03:41:20;96137.50;;;11.16;71.04
75146;BME280;63641;46.526;24.612;2023-04-25T03:43:47;96137.31;;;11.12;71.27
75146;BME280;63641;46.526;24.612;2023-04-25T03:46:14;96142.25;;;11.19;71.27
75146;BME280;63641;46.526;24.612;2023-04-25T03:48:41;96150.38;;;11.19;71.19
75146;BME280;63641;46.526;24.612;2023-04-25T03:51:11;96141.63;;;11.22;71.29
75146;BME280;63641;46.526;24.612;2023-04-25T03:53:38;96134.78;;;11.25;71.37
75146;BME280;63641;46.526;24.612;2023-04-25T03:56:05;96140.53;;;11.23;71.41
75146;BME280;63641;46.526;24.612;2023-04-25T03:58:32;96133.03;;;11.20;71.42
75146;BME280;63641;46.526;24.612;2023-04-25T04:00:58;96128.72;;;11.19;71.56
75146;BME280;63641;46.526;24.612;2023-04-25T04:03:25;96132.41;;;11.23;71.46
75146;BME280;63641;46.526;24.612;2023-04-25T04:05:53;96133.38;;;11.27;71.58
75146;BME280;63641;46.526;24.612;2023-04-25T04:08:20;96126.34;;;11.26;71.58
75146;BME280;63641;46.526;24.612;2023-04-25T04:10:47;96123.63;;;11.26;71.45
75146;BME280;63641;46.526;24.612;2023-04-25T04:13:13;96122.06;;;11.25;71.44
75146;BME280;63641;46.526;24.612;2023-04-25T04:15:40;96128.75;;;11.28;71.50
75146;BME280;63641;46.526;24.612;2023-04-25T04:18:07;96127.81;;;11.32;71.55
75146;BME280;63641;46.526;24.612;2023-04-25T04:20:34;96130.69;;;11.36;71.64
75146;BME280;63641;46.526;24.612;2023-04-25T04:23:01;96120.97;;;11.35;71.76
75146;BME280;63641;46.526;24.612;2023-04-25T04:25:28;96121.75;;;11.35;71.72
75146;BME280;63641;46.526;24.612;2023-04-25T04:27:55;96115.56;;;11.35;71.62
75146;BME280;63641;46.526;24.612;2023-04-25T04:30:23;96121.94;;;11.39;71.98
75146;BME280;63641;46.526;24.612;2023-04-25T04:32:56;96124.81;;;11.43;71.68
75146;BME280;63641;46.526;24.612;2023-04-25T04:35:23;96124.66;;;11.48;71.75
75146;BME280;63641;46.526;24.612;2023-04-25T04:37:51;96125.28;;;11.45;71.62
75146;BME280;63641;46.526;24.612;2023-04-25T04:40:18;96120.03;;;11.48;71.88
75146;BME280;63641;46.526;24.612;2023-04-25T04:42:46;96124.34;;;11.49;71.98
75146;BME280;63641;46.526;24.612;2023-04-25T04:45:13;96125.94;;;11.50;71.92
75146;BME280;63641;46.526;24.612;2023-04-25T04:47:40;96128.63;;;11.50;72.02
75146;BME280;63641;46.526;24.612;2023-04-25T04:50:08;96122.91;;;11.52;72.18
75146;BME280;63641;46.526;24.612;2023-04-25T04:52:36;96127.22;;;11.53;72.25
75146;BME280;63641;46.526;24.612;2023-04-25T04:55:04;96123.06;;;11.55;72.13
75146;BME280;63641;46.526;24.612;2023-04-25T04:57:32;96119.56;;;11.55;72.06
75146;BME280;63641;46.526;24.612;2023-04-25T04:59:59;96128.00;;;11.62;72.16
75146;BME280;63641;46.526;24.612;2023-04-25T05:02:26;96119.25;;;11.65;72.18
75146;BME280;63641;46.526;24.612;2023-04-25T05:04:53;96124.06;;;11.68;72.00
75146;BME280;63641;46.526;24.612;2023-04-25T05:07:20;96111.47;;;11.72;72.04
75146;BME280;63641;46.526;24.612;2023-04-25T05:09:49;96109.38;;;11.69;72.11
75146;BME280;63641;46.526;24.612;2023-04-25T05:12:16;96114.31;;;11.76;71.96
75146;BME280;63641;46.526;24.612;2023-04-25T05:14:43;96114.78;;;11.78;72.01
75146;BME280;63641;46.526;24.612;2023-04-25T05:17:10;96116.72;;;11.77;72.03
75146;BME280;63641;46.526;24.612;2023-04-25T05:19:37;96115.63;;;11.78;72.07
75146;BME280;63641;46.526;24.612;2023-04-25T05:22:04;96111.78;;;11.79;72.12
75146;BME280;63641;46.526;24.612;2023-04-25T05:24:31;96114.66;;;11.83;72.16
75146;BME280;63641;46.526;24.612;2023-04-25T05:26:58;96114.84;;;11.87;72.02
75146;BME280;63641;46.526;24.612;2023-04-25T05:29:24;96118.03;;;11.89;72.18
75146;BME280;63641;46.526;24.612;2023-04-25T05:31:51;96109.75;;;11.94;72.15
75146;BME280;63641;46.526;24.612;2023-04-25T05:34:19;96116.91;;;11.98;72.23
75146;BME280;63641;46.526;24.612;2023-04-25T05:36:46;96113.56;;;12.01;72.06
75146;BME280;63641;46.526;24.612;2023-04-25T05:39:18;96113.72;;;12.05;72.13
75146;BME280;63641;46.526;24.612;2023-04-25T05:41:44;96117.38;;;12.09;72.07
75146;BME280;63641;46.526;24.612;2023-04-25T05:44:11;96112.56;;;12.15;72.15
75146;BME280;63641;46.526;24.612;2023-04-25T05:46:38;96111.63;;;12.19;72.11
75146;BME280;63641;46.526;24.612;2023-04-25T05:49:05;96103.31;;;12.24;72.12
75146;BME280;63641;46.526;24.612;2023-04-25T05:51:32;96099.34;;;12.30;72.23
75146;BME280;63641;46.526;24.612;2023-04-25T05:53:59;96108.41;;;12.35;72.17
75146;BME280;63641;46.526;24.612;2023-04-25T05:56:26;96111.09;;;12.43;72.26
75146;BME280;63641;46.526;24.612;2023-04-25T05:58:52;96097.84;;;12.50;72.17
75146;BME280;63641;46.526;24.612;2023-04-25T06:01:21;96108.22;;;12.57;71.98
75146;BME280;63641;46.526;24.612;2023-04-25T06:03:48;96104.22;;;12.63;71.86
75146;BME280;63641;46.526;24.612;2023-04-25T06:06:15;96106.09;;;12.71;71.78
75146;BME280;63641;46.526;24.612;2023-04-25T06:08:42;96107.97;;;12.79;71.50
75146;BME280;63641;46.526;24.612;2023-04-25T06:11:13;96112.25;;;12.89;71.58
75146;BME280;63641;46.526;24.612;2023-04-25T06:13:40;96102.00;;;12.95;71.33
75146;BME280;63641;46.526;24.612;2023-04-25T06:16:07;96105.34;;;13.00;71.25
75146;BME280;63641;46.526;24.612;2023-04-25T06:18:34;96107.56;;;13.07;71.02
75146;BME280;63641;46.526;24.612;2023-04-25T06:21:01;96098.72;;;13.10;70.73
75146;BME280;63641;46.526;24.612;2023-04-25T06:23:28;96104.94;;;13.19;70.57
75146;BME280;63641;46.526;24.612;2023-04-25T06:25:54;96098.84;;;13.22;70.31
75146;BME280;63641;46.526;24.612;2023-04-25T06:28:21;96101.06;;;13.29;70.19
75146;BME280;63641;46.526;24.612;2023-04-25T06:30:48;96095.59;;;13.38;70.21
75146;BME280;63641;46.526;24.612;2023-04-25T06:33:15;96099.69;;;13.44;69.81
75146;BME280;63641;46.526;24.612;2023-04-25T06:35:42;96099.03;;;13.47;69.49
75146;BME280;63641;46.526;24.612;2023-04-25T06:38:09;96078.63;;;13.41;69.13
75146;BME280;63641;46.526;24.612;2023-04-25T06:40:35;96092.09;;;13.58;68.81
75146;BME280;63641;46.526;24.612;2023-04-25T06:43:02;96093.75;;;13.71;68.71
75146;BME280;63641;46.526;24.612;2023-04-25T06:45:29;96084.75;;;13.80;68.30
75146;BME280;63641;46.526;24.612;2023-04-25T06:47:56;96091.63;;;13.98;68.34
75146;BME280;63641;46.526;24.612;2023-04-25T06:50:22;96096.78;;;14.12;68.13
75146;BME280;63641;46.526;24.612;2023-04-25T06:52:49;96084.03;;;14.24;67.84
75146;BME280;63641;46.526;24.612;2023-04-25T06:55:16;96086.25;;;14.43;67.27
75146;BME280;63641;46.526;24.612;2023-04-25T06:57:43;96080.88;;;14.56;66.58
75146;BME280;63641;46.526;24.612;2023-04-25T07:00:10;96084.97;;;14.62;66.24
75146;BME280;63641;46.526;24.612;2023-04-25T07:02:37;96091.44;;;14.69;65.86
75146;BME280;63641;46.526;24.612;2023-04-25T07:05:04;96084.44;;;14.81;65.51
75146;BME280;63641;46.526;24.612;2023-04-25T07:07:32;96078.41;;;14.87;65.30
75146;BME280;63641;46.526;24.612;2023-04-25T07:09:58;96085.56;;;15.04;64.83
75146;BME280;63641;46.526;24.612;2023-04-25T07:12:25;96081.63;;;15.14;64.58
75146;BME280;63641;46.526;24.612;2023-04-25T07:14:52;96074.78;;;15.20;64.10
75146;BME280;63641;46.526;24.612;2023-04-25T07:17:18;96080.56;;;15.31;63.73
75146;BME280;63641;46.526;24.612;2023-04-25T07:19:45;96080.34;;;15.36;63.52
75146;BME280;63641;46.526;24.612;2023-04-25T07:22:12;96073.75;;;15.37;63.11
75146;BME280;63641;46.526;24.612;2023-04-25T07:24:39;96067.72;;;15.43;63.00
75146;BME280;63641;46.526;24.612;2023-04-25T07:27:06;96067.94;;;15.51;62.28
75146;BME280;63641;46.526;24.612;2023-04-25T07:29:33;96061.00;;;15.53;62.20
75146;BME280;63641;46.526;24.612;2023-04-25T07:32:03;96062.47;;;15.63;61.95
75146;BME280;63641;46.526;24.612;2023-04-25T07:34:30;96061.56;;;15.71;61.45
75146;BME280;63641;46.526;24.612;2023-04-25T07:36:57;96064.84;;;15.77;61.31
75146;BME280;63641;46.526;24.612;2023-04-25T07:39:26;96069.38;;;15.85;61.18
75146;BME280;63641;46.526;24.612;2023-04-25T07:41:52;96058.19;;;15.90;61.19
75146;BME280;63641;46.526;24.612;2023-04-25T07:44:21;96056.13;;;15.99;60.85
75146;BME280;63641;46.526;24.612;2023-04-25T07:46:47;96055.09;;;16.04;60.48
75146;BME280;63641;46.526;24.612;2023-04-25T07:49:14;96052.91;;;16.09;59.71
75146;BME280;63641;46.526;24.612;2023-04-25T07:51:42;96038.34;;;16.05;59.45
75146;BME280;63641;46.526;24.612;2023-04-25T07:54:13;96050.53;;;16.08;59.48
75146;BME280;63641;46.526;24.612;2023-04-25T07:56:40;96054.41;;;16.07;59.38
75146;BME280;63641;46.526;24.612;2023-04-25T07:59:19;96058.28;;;16.06;59.40
75146;BME280;63641;46.526;24.612;2023-04-25T08:01:46;96048.59;;;16.08;59.11
75146;BME280;63641;46.526;24.612;2023-04-25T08:07:31;96048.28;;;16.26;58.80
75146;BME280;63641;46.526;24.612;2023-04-25T08:09:57;96048.13;;;16.34;58.30
75146;BME280;63641;46.526;24.612;2023-04-25T08:12:24;96044.19;;;16.48;57.85
75146;BME280;63641;46.526;24.612;2023-04-25T08:14:51;96034.69;;;16.57;57.23
75146;BME280;63641;46.526;24.612;2023-04-25T08:17:18;96037.16;;;16.62;56.77
75146;BME280;63641;46.526;24.612;2023-04-25T08:19:44;96035.41;;;16.70;56.44
75146;BME280;63641;46.526;24.612;2023-04-25T08:22:11;96041.34;;;16.88;55.80
75146;BME280;63641;46.526;24.612;2023-04-25T08:24:39;96037.97;;;16.95;55.67
75146;BME280;63641;46.526;24.612;2023-04-25T08:27:05;96028.34;;;17.01;55.76
75146;BME280;63641;46.526;24.612;2023-04-25T08:29:34;96041.66;;;17.18;55.70
75146;BME280;63641;46.526;24.612;2023-04-25T08:32:01;96039.25;;;17.32;55.18
75146;BME280;63641;46.526;24.612;2023-04-25T08:34:28;96034.88;;;17.47;54.49
75146;BME280;63641;46.526;24.612;2023-04-25T08:36:54;96034.56;;;17.68;54.27
75146;BME280;63641;46.526;24.612;2023-04-25T08:39:21;96037.56;;;17.98;53.56
75146;BME280;63641;46.526;24.612;2023-04-25T08:41:48;96037.69;;;18.25;53.12
75146;BME280;63641;46.526;24.612;2023-04-25T08:44:16;96033.47;;;18.50;52.32
75146;BME280;63641;46.526;24.612;2023-04-25T08:46:46;96029.63;;;18.74;52.18
75146;BME280;63641;46.526;24.612;2023-04-25T08:49:17;96033.00;;;18.91;50.87
75146;BME280;63641;46.526;24.612;2023-04-25T08:51:46;96025.06;;;19.09;50.20
75146;BME280;63641;46.526;24.612;2023-04-25T08:54:14;96023.75;;;19.25;49.61
75146;BME280;63641;46.526;24.612;2023-04-25T08:57:03;96033.84;;;19.44;48.92
75146;BME280;63641;46.526;24.612;2023-04-25T08:59:32;96021.69;;;19.45;49.05
75146;BME280;63641;46.526;24.612;2023-04-25T09:02:00;96017.47;;;19.51;48.35
75146;BME280;63641;46.526;24.612;2023-04-25T09:04:29;96017.63;;;19.62;47.67
75146;BME280;63641;46.526;24.612;2023-04-25T09:06:56;96022.03;;;19.67;47.37
75146;BME280;63641;46.526;24.612;2023-04-25T09:09:23;96016.94;;;19.69;47.22
75146;BME280;63641;46.526;24.612;2023-04-25T09:11:54;96009.50;;;19.69;46.57
75146;BME280;63641;46.526;24.612;2023-04-25T09:14:22;96007.97;;;19.72;46.35
75146;BME280;63641;46.526;24.612;2023-04-25T09:19:26;95994.06;;;19.61;46.68
75146;BME280;63641;46.526;24.612;2023-04-25T09:22:06;96002.03;;;19.66;46.47
75146;BME280;63641;46.526;24.612;2023-04-25T09:24:39;96000.56;;;19.76;46.72
75146;BME280;63641;46.526;24.612;2023-04-25T09:27:08;96002.28;;;19.88;46.19
75146;BME280;63641;46.526;24.612;2023-04-25T09:29:37;95991.03;;;19.96;46.48
75146;BME280;63641;46.526;24.612;2023-04-25T09:34:50;95992.84;;;19.85;46.25
75146;BME280;63641;46.526;24.612;2023-04-25T09:37:35;95989.53;;;19.72;46.36
75146;BME280;63641;46.526;24.612;2023-04-25T09:40:05;95987.19;;;19.71;45.94
75146;BME280;63641;46.526;24.612;2023-04-25T09:42:33;95993.66;;;19.59;46.00
75146;BME280;63641;46.526;24.612;2023-04-25T09:45:02;95976.78;;;19.57;46.45
75146;BME280;63641;46.526;24.612;2023-04-25T09:47:30;95983.22;;;19.68;46.19
75146;BME280;63641;46.526;24.612;2023-04-25T09:49:57;95976.22;;;19.71;46.10
75146;BME280;63641;46.526;24.612;2023-04-25T09:52:25;95973.88;;;19.73;46.44
75146;BME280;63641;46.526;24.612;2023-04-25T09:54:52;95965.06;;;19.90;46.41
75146;BME280;63641;46.526;24.612;2023-04-25T09:57:20;95949.06;;;19.96;46.06
75146;BME280;63641;46.526;24.612;2023-04-25T09:59:49;95959.69;;;20.01;46.37
75146;BME280;63641;46.526;24.612;2023-04-25T10:02:18;95955.38;;;20.00;46.18
75146;BME280;63641;46.526;24.612;2023-04-25T10:04:51;95955.34;;;19.96;46.09
75146;BME280;63641;46.526;24.612;2023-04-25T10:07:20;95941.97;;;19.95;45.88
75146;BME280;63641;46.526;24.612;2023-04-25T10:09:48;95941.56;;;19.93;45.48
75146;BME280;63641;46.526;24.612;2023-04-25T10:12:16;95941.38;;;19.75;45.85
75146;BME280;63641;46.526;24.612;2023-04-25T10:14:44;95942.41;;;19.63;45.65
75146;BME280;63641;46.526;24.612;2023-04-25T10:17:12;95933.78;;;19.65;45.54
75146;BME280;63641;46.526;24.612;2023-04-25T10:19:39;95930.03;;;19.80;45.51
75146;BME280;63641;46.526;24.612;2023-04-25T10:22:17;95928.28;;;19.98;46.18
75146;BME280;63641;46.526;24.612;2023-04-25T10:24:46;95926.19;;;20.22;46.06
75146;BME280;63641;46.526;24.612;2023-04-25T10:27:13;95923.50;;;20.29;45.22
75146;BME280;63641;46.526;24.612;2023-04-25T10:29:41;95914.84;;;20.27;44.84
75146;BME280;63641;46.526;24.612;2023-04-25T10:32:09;95920.28;;;20.23;44.35
75146;BME280;63641;46.526;24.612;2023-04-25T10:34:43;95911.91;;;20.09;44.63
75146;BME280;63641;46.526;24.612;2023-04-25T10:37:13;95906.31;;;19.98;44.46
75146;BME280;63641;46.526;24.612;2023-04-25T10:39:41;95909.41;;;19.93;43.94
75146;BME280;63641;46.526;24.612;2023-04-25T10:42:08;95900.72;;;19.88;43.84
75146;BME280;63641;46.526;24.612;2023-04-25T10:44:37;95915.69;;;19.94;44.06
75146;BME280;63641;46.526;24.612;2023-04-25T10:47:06;95902.75;;;19.94;43.89
75146;BME280;63641;46.526;24.612;2023-04-25T10:49:38;95899.63;;;19.96;44.02
75146;BME280;63641;46.526;24.612;2023-04-25T10:52:11;95894.53;;;19.98;44.21
75146;BME280;63641;46.526;24.612;2023-04-25T10:54:57;95903.22;;;20.00;43.93
75146;BME280;63641;46.526;24.612;2023-04-25T10:57:37;95905.22;;;20.07;43.76
75146;BME280;63641;46.526;24.612;2023-04-25T11:02:52;95893.31;;;20.33;43.08
75146;BME280;63641;46.526;24.612;2023-04-25T11:05:41;95889.81;;;20.39;42.72
75146;BME280;63641;46.526;24.612;2023-04-25T11:08:37;95893.88;;;20.53;42.16
75146;BME280;63641;46.526;24.612;2023-04-25T11:11:15;95893.19;;;20.63;41.84
75146;BME280;63641;46.526;24.612;2023-04-25T11:13:43;95884.53;;;20.61;41.77
75146;BME280;63641;46.526;24.612;2023-04-25T11:16:13;95883.78;;;20.67;41.50
75146;BME280;63641;46.526;24.612;2023-04-25T11:18:44;95888.94;;;20.76;41.40
75146;BME280;63641;46.526;24.612;2023-04-25T11:21:14;95863.00;;;20.70;41.10
75146;BME280;63641;46.526;24.612;2023-04-25T11:23:45;95878.03;;;20.87;42.13
75146;BME280;63641;46.526;24.612;2023-04-25T11:26:14;95876.13;;;20.98;42.22
75146;BME280;63641;46.526;24.612;2023-04-25T11:28:44;95869.53;;;21.17;42.36
75146;BME280;63641;46.526;24.612;2023-04-25T11:31:11;95871.97;;;21.26;41.73
75146;BME280;63641;46.526;24.612;2023-04-25T11:33:38;95873.50;;;21.23;40.99
75146;BME280;63641;46.526;24.612;2023-04-25T11:36:07;95861.66;;;21.08;40.97
75146;BME280;63641;46.526;24.612;2023-04-25T11:38:34;95858.06;;;21.01;40.71
75146;BME280;63641;46.526;24.612;2023-04-25T11:41:01;95865.50;;;20.93;41.11
75146;BME280;63641;46.526;24.612;2023-04-25T11:43:28;95862.72;;;20.89;41.42
75146;BME280;63641;46.526;24.612;2023-04-25T11:45:55;95859.56;;;20.87;41.57
75146;BME280;63641;46.526;24.612;2023-04-25T11:48:21;95849.34;;;20.84;41.40
75146;BME280;63641;46.526;24.612;2023-04-25T11:50:51;95857.94;;;20.79;41.15
75146;BME280;63641;46.526;24.612;2023-04-25T11:53:20;95855.50;;;20.63;40.96
75146;BME280;63641;46.526;24.612;2023-04-25T11:55:46;95856.06;;;20.39;41.36
75146;BME280;63641;46.526;24.612;2023-04-25T11:58:14;95851.16;;;20.11;41.52
75146;BME280;63641;46.526;24.612;2023-04-25T12:00:42;95860.31;;;19.85;41.67
75146;BME280;63641;46.526;24.612;2023-04-25T12:03:17;95849.94;;;19.67;42.29
75146;BME280;63641;46.526;24.612;2023-04-25T12:05:45;95845.50;;;19.59;42.33
75146;BME280;63641;46.526;24.612;2023-04-25T12:08:13;95840.97;;;19.40;42.51
75146;BME280;63641;46.526;24.612;2023-04-25T12:10:42;95850.38;;;19.39;42.69
75146;BME280;63641;46.526;24.612;2023-04-25T12:13:25;95834.91;;;19.24;42.58
75146;BME280;63641;46.526;24.612;2023-04-25T12:15:55;95837.22;;;19.22;42.78
75146;BME280;63641;46.526;24.612;2023-04-25T12:18:24;95836.59;;;19.02;43.26
75146;BME280;63641;46.526;24.612;2023-04-25T12:20:54;95834.00;;;18.82;43.67
75146;BME280;63641;46.526;24.612;2023-04-25T12:23:27;95816.44;;;18.61;43.86
75146;BME280;63641;46.526;24.612;2023-04-25T12:25:55;95828.38;;;18.72;43.82
75146;BME280;63641;46.526;24.612;2023-04-25T12:28:23;95836.22;;;18.73;44.17
75146;BME280;63641;46.526;24.612;2023-04-25T12:31:06;95832.69;;;18.73;44.81
75146;BME280;63641;46.526;24.612;2023-04-25T12:33:37;95814.78;;;18.52;45.88
75146;BME280;63641;46.526;24.612;2023-04-25T12:36:05;95828.13;;;18.57;46.60
75146;BME280;63641;46.526;24.612;2023-04-25T12:38:40;95831.22;;;18.52;47.46
75146;BME280;63641;46.526;24.612;2023-04-25T12:41:07;95819.25;;;18.38;47.97
75146;BME280;63641;46.526;24.612;2023-04-25T12:43:34;95823.84;;;18.30;48.43
75146;BME280;63641;46.526;24.612;2023-04-25T12:46:01;95829.91;;;18.20;48.86
75146;BME280;63641;46.526;24.612;2023-04-25T12:48:28;95832.84;;;18.07;48.99
75146;BME280;63641;46.526;24.612;2023-04-25T12:50:55;95836.19;;;17.97;49.14
75146;BME280;63641;46.526;24.612;2023-04-25T12:53:22;95830.81;;;17.81;49.66
75146;BME280;63641;46.526;24.612;2023-04-25T12:55:51;95837.69;;;17.72;49.81
75146;BME280;63641;46.526;24.612;2023-04-25T12:58:18;95833.53;;;17.58;49.61
75146;BME280;63641;46.526;24.612;2023-04-25T13:00:45;95835.66;;;17.46;49.69
75146;BME280;63641;46.526;24.612;2023-04-25T13:03:12;95843.25;;;17.36;49.67
75146;BME280;63641;46.526;24.612;2023-04-25T13:05:39;95842.41;;;17.32;49.54